Time;durP1;ratioP1;P1;durP2;ratioP2;P2;SDS_P1;SDS_P2;PMS_P1;PMS_P2;Temp;Humidity;BMP_temperature;BMP_pressure;BME280_temperature;BME280_humidity;BME280_pressure;Samples;Min_cycle;Max_cycle;Signal;HPM_P1;HPM_P2
2022/11/21 00:00:15;;;;;;;14.75;6.72;;;;;;;4.76;100.00;100523.69;4804697;29;20069;-73
2022/11/21 00:02:40;;;;;;;22.08;8.60;;;;;;;4.79;100.00;100541.16;4799923;29;20463;-73
2022/11/21 00:05:06;;;;;;;17.58;8.20;;;;;;;4.78;100.00;100531.56;4821782;29;20042;-74
2022/11/21 00:07:31;;;;;;;16.00;6.70;;;;;;;4.80;100.00;100514.03;4805831;29;20402;-73
2022/11/21 00:09:57;;;;;;;10.75;5.40;;;;;;;4.84;100.00;100511.41;4822404;29;20026;-73
2022/11/21 00:12:22;;;;;;;15.30;5.03;;;;;;;4.86;100.00;100519.28;4805636;29;20046;-73
2022/11/21 00:14:48;;;;;;;19.70;4.95;;;;;;;4.87;100.00;100526.25;4775937;29;20192;-73
2022/11/21 00:17:13;;;;;;;15.40;5.28;;;;;;;4.88;100.00;100531.50;4822221;29;20042;-73
2022/11/21 00:19:39;;;;;;;14.95;5.75;;;;;;;4.87;100.00;100535.03;4805491;29;20049;-73
2022/11/21 00:22:04;;;;;;;19.40;8.27;;;;;;;4.86;100.00;100543.75;4790762;29;20062;-73
2022/11/21 00:24:30;;;;;;;19.83;9.95;;;;;;;4.85;100.00;100555.13;4805500;29;20146;-74
2022/11/21 00:26:55;;;;;;;20.27;10.73;;;;;;;4.84;100.00;100563.00;4790349;29;20125;-73
2022/11/21 00:29:21;;;;;;;19.13;10.55;;;;;;;4.81;100.00;100573.50;4822112;29;20352;-73
2022/11/21 00:31:46;;;;;;;28.52;16.98;;;;;;;4.75;100.00;100577.03;4805610;29;20046;-73
2022/11/21 00:34:12;;;;;;;30.80;18.50;;;;;;;4.67;100.00;100563.94;4808831;29;20439;-74
2022/11/21 00:36:37;;;;;;;28.13;17.02;;;;;;;4.61;100.00;100565.69;4809108;29;20125;-73
2022/11/21 00:39:03;;;;;;;27.50;17.10;;;;;;;4.52;100.00;100562.22;4825400;29;20122;-73
2022/11/21 00:41:28;;;;;;;25.30;16.63;;;;;;;4.47;100.00;100549.97;4809060;29;20109;-73
2022/11/21 00:43:54;;;;;;;26.48;16.70;;;;;;;4.43;100.00;100540.38;4809112;29;20133;-77
2022/11/21 00:46:19;;;;;;;22.60;15.45;;;;;;;4.36;100.00;100520.28;4825168;29;20065;-73
2022/11/21 00:48:44;;;;;;;28.45;17.08;;;;;;;4.28;100.00;100515.94;4807617;29;20090;-73
2022/11/21 00:51:10;;;;;;;23.60;15.98;;;;;;;4.23;100.00;100522.91;4825288;29;20066;-73
2022/11/21 00:53:35;;;;;;;26.48;16.45;;;;;;;4.19;100.00;100533.41;4824987;29;20030;-73
2022/11/21 00:56:01;;;;;;;26.35;16.50;;;;;;;4.16;100.00;100547.38;4825354;29;20038;-73
2022/11/21 00:58:27;;;;;;;36.72;17.98;;;;;;;4.10;100.00;100542.13;4838477;29;20482;-73
2022/11/21 01:01:02;;;;;;;30.27;16.58;;;;;;;4.06;100.00;100546.50;4838263;29;20046;-73
2022/11/21 01:03:27;;;;;;;30.17;17.30;;;;;;;4.00;100.00;100549.13;4839566;29;20178;-73
2022/11/21 01:05:53;;;;;;;32.92;16.73;;;;;;;3.97;100.00;100550.88;4837241;29;20632;-73
2022/11/21 01:08:18;;;;;;;30.55;16.90;;;;;;;3.94;100.00;100549.13;4828497;29;20502;-73
2022/11/21 01:10:43;;;;;;;36.70;18.60;;;;;;;3.91;100.00;100556.09;4807741;29;20073;-73
2022/11/21 01:13:09;;;;;;;36.00;18.25;;;;;;;3.88;100.00;100552.63;4833814;29;20038;-73
2022/11/21 01:15:34;;;;;;;27.05;16.65;;;;;;;3.88;100.00;100554.34;4843306;29;20632;-73
2022/11/21 01:18:00;;;;;;;27.67;15.38;;;;;;;3.85;100.00;100549.13;4822696;29;20126;-73
2022/11/21 01:20:25;;;;;;;27.52;16.52;;;;;;;3.83;100.00;100558.72;4841395;29;20045;-73
2022/11/21 01:22:51;;;;;;;25.80;16.33;;;;;;;3.80;100.00;100562.19;4828106;29;20034;-73
2022/11/21 01:25:16;;;;;;;26.50;16.35;;;;;;;3.78;100.00;100557.84;4829884;29;20129;-73
2022/11/21 01:27:41;;;;;;;27.45;16.52;;;;;;;3.77;100.00;100554.34;4834938;29;20026;-73
2022/11/21 01:30:07;;;;;;;24.88;15.98;;;;;;;3.76;100.00;100552.63;4811781;29;20077;-73
2022/11/21 01:32:33;;;;;;;27.65;15.98;;;;;;;3.75;100.00;100548.22;4817824;29;20053;-73
2022/11/21 01:34:58;;;;;;;25.30;16.20;;;;;;;3.73;100.00;100543.84;4841883;29;20030;-73
2022/11/21 01:37:24;;;;;;;28.17;16.63;;;;;;;3.72;100.00;100548.22;4785389;29;20060;-73
2022/11/21 01:39:49;;;;;;;29.63;18.00;;;;;;;3.69;100.00;100553.47;4832544;29;20046;-73
2022/11/21 01:42:15;;;;;;;30.42;18.42;;;;;;;3.68;100.00;100530.75;4819137;29;20572;-73
2022/11/21 01:44:49;;;;;;;24.17;15.45;;;;;;;3.68;100.00;100528.13;4829694;29;20090;-73
2022/11/21 01:47:15;;;;;;;28.88;17.05;;;;;;;3.66;100.00;100519.44;4820309;29;20053;-73
2022/11/21 01:49:41;;;;;;;34.28;17.35;;;;;;;3.64;100.00;100537.75;4831374;29;20058;-73
2022/11/21 01:52:20;;;;;;;35.67;19.30;;;;;;;3.63;100.00;100550.81;4810901;29;20645;-73
2022/11/21 01:54:55;;;;;;;47.80;19.60;;;;;;;3.61;100.00;100556.09;4826013;29;20038;-73
2022/11/21 01:57:29;;;;;;;29.73;17.65;;;;;;;3.60;100.00;100549.06;4833828;29;20042;-73
2022/11/21 02:00:03;;;;;;;30.88;18.65;;;;;;;3.59;100.00;100549.09;4820865;29;20044;-73
2022/11/21 02:02:38;;;;;;;32.42;18.20;;;;;;;3.58;100.00;100548.19;4835074;29;20034;-73
2022/11/21 02:05:08;;;;;;;33.65;19.20;;;;;;;3.59;100.00;100547.34;4821472;29;20038;-73
2022/11/21 02:07:38;;;;;;;30.10;19.20;;;;;;;3.57;100.00;100548.22;4838363;29;20041;-73
2022/11/21 02:10:04;;;;;;;34.13;19.45;;;;;;;3.56;100.00;100546.44;4839833;29;20037;-73
2022/11/21 02:12:41;;;;;;;37.90;19.70;;;;;;;3.57;100.00;100550.81;4823614;29;20030;-73
2022/11/21 02:15:07;;;;;;;31.50;19.13;;;;;;;3.57;100.00;100546.47;4836926;29;20168;-73
2022/11/21 02:17:33;;;;;;;39.95;20.65;;;;;;;3.53;100.00;100546.44;4818858;29;20554;-73
2022/11/21 02:20:01;;;;;;;38.80;20.23;;;;;;;3.52;100.00;100556.06;4808049;29;20049;-73
2022/11/21 02:22:41;;;;;;;32.63;19.35;;;;;;;3.52;100.00;100547.31;4836882;29;20034;-73
2022/11/21 02:25:25;;;;;;;33.08;19.40;;;;;;;3.51;100.00;100546.47;4836668;29;20367;-73
2022/11/21 02:27:57;;;;;;;40.45;20.23;;;;;;;3.50;100.00;100551.69;4836595;29;20086;-73
2022/11/21 02:30:23;;;;;;;33.40;19.67;;;;;;;3.48;100.00;100550.81;4841138;29;20061;-73
2022/11/21 02:32:48;;;;;;;29.67;18.80;;;;;;;3.49;100.00;100563.00;4805331;29;20412;-73
2022/11/21 02:35:16;;;;;;;31.27;19.15;;;;;;;3.48;100.00;100579.59;4822174;29;20049;-73
2022/11/21 02:37:45;;;;;;;30.40;18.88;;;;;;;3.47;100.00;100570.00;4834589;29;20053;-73
2022/11/21 02:40:18;;;;;;;31.17;18.80;;;;;;;3.45;100.00;100575.22;4822515;29;20506;-73
2022/11/21 02:43:22;;;;;;;34.10;20.85;;;;;;;3.47;100.00;100567.38;4821954;29;20392;-73
2022/11/21 02:45:48;;;;;;;35.75;19.70;;;;;;;3.47;100.00;100564.78;4840812;29;20074;-73
2022/11/21 02:48:14;;;;;;;36.95;20.75;;;;;;;3.44;100.00;100563.03;4833591;29;20054;-73
2022/11/21 02:50:42;;;;;;;39.50;20.35;;;;;;;3.43;100.00;100564.75;4821549;29;20058;-73
2022/11/21 02:53:09;;;;;;;41.17;20.70;;;;;;;3.42;100.00;100586.56;4831477;29;20050;-73
2022/11/21 02:55:35;;;;;;;43.10;21.45;;;;;;;3.40;100.00;100577.81;4838738;29;20038;-73
2022/11/21 02:58:01;;;;;;;38.13;20.40;;;;;;;3.39;100.00;100581.31;4820688;29;20033;-73
2022/11/21 03:00:26;;;;;;;38.60;20.55;;;;;;;3.40;100.00;100580.44;4789988;29;20038;-73
2022/11/21 03:02:54;;;;;;;42.55;20.77;;;;;;;3.39;100.00;100576.09;4821490;29;20034;-73
2022/11/21 03:05:21;;;;;;;33.67;19.83;;;;;;;3.41;100.00;100570.84;4835569;29;20042;-73
2022/11/21 03:07:47;;;;;;;34.38;18.70;;;;;;;3.36;100.00;100573.47;4822260;29;20042;-73
2022/11/21 03:10:12;;;;;;;33.58;20.30;;;;;;;3.34;100.00;100558.59;4822489;29;20044;-74
2022/11/21 03:12:40;;;;;;;33.35;19.35;;;;;;;3.34;100.00;100555.97;4808031;29;20137;-73
2022/11/21 03:15:08;;;;;;;33.72;20.60;;;;;;;3.36;100.00;100554.25;4836090;29;20033;-73
2022/11/21 03:17:33;;;;;;;34.22;19.10;;;;;;;3.37;100.00;100550.78;4836260;29;20035;-73
2022/11/21 03:19:59;;;;;;;32.30;19.17;;;;;;;3.37;100.00;100551.66;4836988;29;20053;-73
2022/11/21 03:22:24;;;;;;;32.67;19.15;;;;;;;3.36;100.00;100547.28;4820176;29;20042;-73
2022/11/21 03:24:50;;;;;;;34.20;18.80;;;;;;;3.36;100.00;100536.81;4821954;29;20117;-73
2022/11/21 03:27:15;;;;;;;51.83;20.08;;;;;;;3.36;100.00;100535.94;4838178;29;20050;-73
2022/11/21 03:29:41;;;;;;;40.03;20.90;;;;;;;3.31;100.00;100530.69;4820557;29;20095;-73
2022/11/21 03:32:06;;;;;;;38.60;20.23;;;;;;;3.31;100.00;100528.06;4819924;29;20033;-73
2022/11/21 03:34:32;;;;;;;44.38;21.40;;;;;;;3.32;100.00;100528.97;4834551;29;20518;-73
2022/11/21 03:36:57;;;;;;;38.33;19.42;;;;;;;3.30;100.00;100536.78;4835015;29;20033;-73
2022/11/21 03:39:23;;;;;;;49.95;21.25;;;;;;;3.28;100.00;100540.28;4816898;29;20049;-73
2022/11/21 03:41:48;;;;;;;42.17;20.63;;;;;;;3.26;100.00;100537.63;4821352;29;20066;-73
2022/11/21 03:44:14;;;;;;;34.92;20.73;;;;;;;3.29;100.00;100535.06;4805814;29;20052;-73
2022/11/21 03:46:42;;;;;;;34.88;19.40;;;;;;;3.31;100.00;100535.03;4837094;29;20573;-73
2022/11/21 03:49:08;;;;;;;31.52;19.77;;;;;;;3.30;100.00;100539.41;4832200;29;20728;-73
2022/11/21 03:51:34;;;;;;;37.45;20.17;;;;;;;3.30;100.00;100531.56;4818097;29;20066;-73
2022/11/21 03:54:00;;;;;;;34.88;20.50;;;;;;;3.33;100.00;100528.06;4817717;29;20363;-73
2022/11/21 03:56:26;;;;;;;34.83;19.77;;;;;;;3.34;100.00;100532.44;4825777;29;20044;-73
2022/11/21 03:58:53;;;;;;;32.80;18.67;;;;;;;3.31;100.00;100533.28;4836304;29;20069;-74
2022/11/21 04:01:18;;;;;;;30.25;18.63;;;;;;;3.26;100.00;100536.78;4808144;29;20045;-73
2022/11/21 04:03:45;;;;;;;33.15;19.45;;;;;;;3.23;100.00;100538.50;4803860;29;20046;-73
2022/11/21 04:06:12;;;;;;;33.63;19.27;;;;;;;3.25;100.00;100541.13;4836158;29;20483;-74
2022/11/21 04:08:38;;;;;;;37.25;20.17;;;;;;;3.27;100.00;100533.31;4821341;29;20041;-73
2022/11/21 04:11:04;;;;;;;41.40;21.00;;;;;;;3.27;100.00;100538.53;4837154;29;20185;-73
2022/11/21 04:13:29;;;;;;;37.30;19.48;;;;;;;3.26;100.00;100542.88;4819209;29;20479;-73
2022/11/21 04:15:55;;;;;;;41.85;20.27;;;;;;;3.23;100.00;100543.75;4819175;29;20053;-73
2022/11/21 04:18:20;;;;;;;33.95;19.25;;;;;;;3.24;100.00;100549.88;4837152;29;20067;-73
2022/11/21 04:20:46;;;;;;;34.08;19.63;;;;;;;3.27;100.00;100546.41;4833797;29;20125;-73
2022/11/21 04:23:12;;;;;;;30.10;19.17;;;;;;;3.30;100.00;100543.78;4806504;29;20106;-73
2022/11/21 04:25:38;;;;;;;32.65;19.75;;;;;;;3.31;100.00;100551.63;4836048;29;20390;-73
2022/11/21 04:28:04;;;;;;;32.80;20.23;;;;;;;3.31;100.00;100540.28;4837023;29;20117;-73
2022/11/21 04:30:31;;;;;;;31.70;19.25;;;;;;;3.31;100.00;100542.91;4834027;29;20042;-73
2022/11/21 04:32:56;;;;;;;31.73;19.30;;;;;;;3.30;100.00;100536.78;4836471;29;20101;-73
2022/11/21 04:35:23;;;;;;;28.20;17.75;;;;;;;3.31;100.00;100535.03;4834277;29;20522;-73
2022/11/21 04:37:49;;;;;;;33.80;17.90;;;;;;;3.32;100.00;100535.06;4820549;29;20113;-73
2022/11/21 04:40:15;;;;;;;31.48;19.85;;;;;;;3.32;100.00;100532.44;4836501;29;20142;-73
2022/11/21 04:42:42;;;;;;;32.60;19.35;;;;;;;3.32;100.00;100519.34;4818601;29;20053;-73
2022/11/21 04:45:08;;;;;;;30.50;17.58;;;;;;;3.32;100.00;100519.34;4821331;29;20030;-73
2022/11/21 04:47:38;;;;;;;34.38;19.98;;;;;;;3.28;100.00;100509.75;4831532;29;20043;-73
2022/11/21 04:50:04;;;;;;;56.08;20.90;;;;;;;3.25;100.00;100509.75;4836402;29;20053;-73
2022/11/21 04:52:30;;;;;;;35.30;19.48;;;;;;;3.22;100.00;100505.38;4837116;29;20095;-73
2022/11/21 04:54:56;;;;;;;32.90;19.30;;;;;;;3.23;100.00;100507.09;4834541;29;20143;-73
2022/11/21 04:57:21;;;;;;;29.80;18.63;;;;;;;3.25;100.00;100501.88;4825779;29;20081;-73
2022/11/21 04:59:47;;;;;;;50.08;19.80;;;;;;;3.25;100.00;100504.50;4804709;29;20072;-73
2022/11/21 05:02:12;;;;;;;101.78;21.08;;;;;;;3.25;100.00;100503.63;4820936;29;20037;-73
2022/11/21 05:04:38;;;;;;;36.78;18.33;;;;;;;3.23;100.00;100507.09;4789989;29;20075;-73
2022/11/21 05:07:04;;;;;;;66.35;18.88;;;;;;;3.22;100.00;100494.91;4805470;29;20050;-73
2022/11/21 05:09:29;;;;;;;48.50;16.77;;;;;;;3.25;100.00;100496.66;4821425;29;20126;-73
2022/11/21 05:14:39;;;;;;;87.07;17.55;;;;;;;3.22;100.00;100486.19;4804845;29;20517;-73
2022/11/21 05:17:04;;;;;;;76.65;16.65;;;;;;;3.24;100.00;100494.91;4805147;29;20046;-73
2022/11/21 05:19:29;;;;;;;75.13;16.10;;;;;;;3.19;100.00;100473.06;4807209;29;20122;-73
2022/11/21 05:21:55;;;;;;;61.85;16.27;;;;;;;3.20;100.00;100480.06;4808229;29;20425;-73
2022/11/21 05:24:21;;;;;;;69.03;17.13;;;;;;;3.18;100.00;100474.81;4824662;29;20153;-74
2022/11/21 05:26:46;;;;;;;100.43;18.77;;;;;;;3.16;100.00;100471.31;4824706;29;20110;-73
2022/11/21 05:29:12;;;;;;;60.13;16.67;;;;;;;3.18;100.00;100472.22;4769162;29;20022;-73
2022/11/21 05:31:38;;;;;;;93.55;16.10;;;;;;;3.16;100.00;100471.31;4808209;29;20042;-73
2022/11/21 05:34:03;;;;;;;50.65;16.35;;;;;;;3.16;100.00;100471.31;4824297;29;20034;-73
2022/11/21 05:36:28;;;;;;;99.78;17.90;;;;;;;3.15;100.00;100472.22;4808281;29;20046;-73
2022/11/21 05:38:54;;;;;;;76.68;15.38;;;;;;;3.14;100.00;100465.25;4807998;29;20046;-74
2022/11/21 05:41:19;;;;;;;94.90;17.02;;;;;;;3.12;100.00;100471.34;4824367;29;20098;-73
2022/11/21 05:43:45;;;;;;;69.55;15.63;;;;;;;3.10;100.00;100471.31;4807963;29;20129;-73
2022/11/21 05:46:16;;;;;;;145.35;17.38;;;;;;;3.08;100.00;100469.56;4807801;29;20073;-73
2022/11/21 05:48:42;;;;;;;102.03;15.23;;;;;;;3.04;100.00;100466.06;4822018;29;20413;-74
2022/11/21 05:51:08;;;;;;;66.75;15.20;;;;;;;3.03;100.00;100460.84;4824209;29;20047;-73
2022/11/21 05:53:34;;;;;;;134.43;16.75;;;;;;;3.01;100.00;100469.53;4823990;29;20035;-74
2022/11/21 05:56:03;;;;;;;72.95;14.93;;;;;;;3.01;100.00;100460.81;4823944;29;20053;-73
2022/11/21 05:58:28;;;;;;;51.72;15.35;;;;;;;3.02;100.00;100452.13;4823838;29;20061;-73
2022/11/21 06:00:57;;;;;;;48.28;15.25;;;;;;;3.02;100.00;100444.28;4824023;29;20473;-73
2022/11/21 06:03:29;;;;;;;56.20;14.32;;;;;;;3.02;100.00;100446.91;4823675;29;20042;-73
2022/11/21 06:06:09;;;;;;;107.25;15.75;;;;;;;3.03;100.00;100445.16;4823714;29;20088;-73
2022/11/21 06:08:37;;;;;;;88.32;15.32;;;;;;;3.04;100.00;100454.72;4812222;29;20049;-73
2022/11/21 06:11:04;;;;;;;76.13;15.75;;;;;;;3.04;100.00;100447.75;4831134;29;20478;-73
2022/11/21 06:13:32;;;;;;;78.10;15.18;;;;;;;3.06;100.00;100448.63;4824103;29;20050;-73
2022/11/21 06:16:04;;;;;;;32.03;13.98;;;;;;;3.08;100.00;100454.75;4807653;29;20363;-73
2022/11/21 06:18:32;;;;;;;58.00;15.77;;;;;;;3.11;100.00;100457.34;4823652;29;20478;-73
2022/11/21 06:21:11;;;;;;;69.50;14.43;;;;;;;3.12;100.00;100464.34;4823541;29;20447;-73
2022/11/21 06:23:37;;;;;;;72.18;16.60;;;;;;;3.12;100.00;100456.50;4806836;29;20026;-73
2022/11/21 06:26:04;;;;;;;44.63;15.75;;;;;;;3.10;100.00;100450.38;4807160;29;20380;-73
2022/11/21 06:28:32;;;;;;;25.10;13.85;;;;;;;3.11;100.00;100448.63;4811136;29;20023;-73
2022/11/21 06:31:06;;;;;;;52.30;14.57;;;;;;;3.12;100.00;100432.09;4806556;29;20045;-73
2022/11/21 06:33:32;;;;;;;51.78;16.67;;;;;;;3.13;100.00;100434.69;4827813;29;20381;-73
2022/11/21 06:36:01;;;;;;;32.30;15.40;;;;;;;3.14;100.00;100420.75;4824218;29;20038;-73
2022/11/21 06:38:26;;;;;;;46.72;15.48;;;;;;;3.18;100.00;100417.25;4838587;29;20037;-73
2022/11/21 06:40:52;;;;;;;36.22;16.13;;;;;;;3.23;100.00;100425.13;4821639;29;20061;-73
2022/11/21 06:43:17;;;;;;;31.13;16.15;;;;;;;3.25;100.00;100422.53;4823998;29;20045;-73
2022/11/21 06:45:43;;;;;;;38.00;17.48;;;;;;;3.25;100.00;100417.28;4838526;29;20112;-73
2022/11/21 06:48:08;;;;;;;24.13;16.20;;;;;;;3.28;100.00;100431.22;4803474;29;20249;-74
2022/11/21 06:50:34;;;;;;;27.23;16.50;;;;;;;3.31;100.00;100425.13;4836353;29;20073;-73
2022/11/21 06:53:00;;;;;;;32.75;15.75;;;;;;;3.33;100.00;100421.63;4801809;29;20173;-73
2022/11/21 06:55:29;;;;;;;31.92;17.38;;;;;;;3.35;100.00;100422.53;4837741;29;20140;-73
2022/11/21 06:57:58;;;;;;;26.38;16.40;;;;;;;3.37;100.00;100419.91;4817792;29;20037;-73
2022/11/21 07:00:26;;;;;;;27.17;16.20;;;;;;;3.41;100.00;100424.25;4838981;29;20394;-73
2022/11/21 07:02:53;;;;;;;26.58;17.20;;;;;;;3.42;100.00;100410.31;4838418;29;20026;-73
2022/11/21 07:05:19;;;;;;;28.40;17.15;;;;;;;3.43;100.00;100398.97;4838727;29;20041;-72
2022/11/21 07:07:44;;;;;;;27.15;16.10;;;;;;;3.46;100.00;100398.94;4808084;29;20050;-73
2022/11/21 07:10:10;;;;;;;24.27;14.93;;;;;;;3.46;100.00;100388.47;4839811;29;20034;-73
2022/11/21 07:15:20;;;;;;;29.58;16.77;;;;;;;3.51;100.00;100401.56;4834930;29;20046;-72
2022/11/21 07:17:45;;;;;;;23.95;16.52;;;;;;;3.54;100.00;100405.09;4820171;29;20136;-72
2022/11/21 07:20:11;;;;;;;26.92;16.48;;;;;;;3.57;100.00;100396.34;4834651;29;20034;-72
2022/11/21 07:22:37;;;;;;;29.33;17.65;;;;;;;3.57;100.00;100388.50;4838132;29;20045;-72
2022/11/21 07:25:02;;;;;;;29.77;17.80;;;;;;;3.56;100.00;100390.25;4817359;29;20121;-72
2022/11/21 07:27:28;;;;;;;29.42;16.88;;;;;;;3.56;100.00;100392.88;4835263;29;20086;-72
2022/11/21 07:29:56;;;;;;;26.17;16.67;;;;;;;3.58;100.00;100385.84;4822533;29;20144;-72
2022/11/21 07:32:23;;;;;;;29.38;17.13;;;;;;;3.62;100.00;100394.59;4828039;29;20041;-72
2022/11/21 07:34:48;;;;;;;29.33;16.75;;;;;;;3.65;100.00;100402.44;4822659;29;20179;-72
2022/11/21 07:37:14;;;;;;;33.80;16.73;;;;;;;3.68;100.00;100407.69;4801046;29;20495;-72
2022/11/21 07:39:39;;;;;;;28.13;16.85;;;;;;;3.71;100.00;100399.84;4823296;29;20466;-72
2022/11/21 07:42:05;;;;;;;24.58;16.00;;;;;;;3.74;100.00;100391.09;4838385;29;20538;-72
2022/11/21 07:44:30;;;;;;;31.23;17.92;;;;;;;3.78;100.00;100393.69;4837836;29;20378;-72
2022/11/21 07:46:56;;;;;;;27.00;16.33;;;;;;;3.80;100.00;100391.94;4834150;29;20503;-72
2022/11/21 07:49:22;;;;;;;26.80;16.33;;;;;;;3.83;100.00;100399.81;4834549;29;20050;-72
2022/11/21 07:51:49;;;;;;;28.50;16.52;;;;;;;3.86;100.00;100393.72;4839182;29;20387;-72
2022/11/21 07:54:14;;;;;;;29.90;16.45;;;;;;;3.87;100.00;100385.84;4831622;29;20030;-72
2022/11/21 07:56:39;;;;;;;25.27;16.63;;;;;;;3.92;100.00;100388.44;4787050;29;20041;-72
2022/11/21 07:59:05;;;;;;;30.52;16.17;;;;;;;3.96;100.00;100394.56;4805740;29;20048;-72
2022/11/21 08:01:31;;;;;;;27.05;16.95;;;;;;;3.99;100.00;100386.69;4822066;29;20061;-72
2022/11/21 08:03:56;;;;;;;20.90;15.98;;;;;;;4.02;100.00;100382.31;4800833;29;20043;-72
2022/11/21 08:06:21;;;;;;;24.58;16.02;;;;;;;4.09;100.00;100385.78;4802477;29;20049;-72
2022/11/21 08:08:51;;;;;;;28.48;17.42;;;;;;;4.15;100.00;100384.91;4806018;29;20050;-72
2022/11/21 08:11:17;;;;;;;25.80;17.58;;;;;;;4.19;100.00;100379.63;4822282;29;20121;-72
2022/11/21 08:13:42;;;;;;;28.55;16.52;;;;;;;4.23;100.00;100381.38;4822413;29;20117;-72
2022/11/21 08:16:08;;;;;;;21.95;14.13;;;;;;;4.27;100.00;100379.63;4822561;29;20121;-72
2022/11/21 08:18:33;;;;;;;24.35;14.05;;;;;;;4.30;100.00;100371.72;4822434;29;20041;-72
2022/11/21 08:21:03;;;;;;;24.30;14.77;;;;;;;4.32;100.00;100364.75;4793485;29;20046;-73
2022/11/21 08:23:29;;;;;;;25.58;14.82;;;;;;;4.34;100.00;100357.75;4788749;29;20046;-72
2022/11/21 08:25:54;;;;;;;24.40;14.98;;;;;;;4.37;100.00;100356.84;4821468;29;20040;-73
2022/11/21 08:28:20;;;;;;;24.45;14.48;;;;;;;4.43;100.00;100354.22;4826078;29;20034;-73
2022/11/21 08:30:45;;;;;;;18.38;13.30;;;;;;;4.47;100.00;100350.69;4804522;29;20510;-73
2022/11/21 08:33:11;;;;;;;21.98;13.13;;;;;;;4.51;100.00;100368.16;4820545;29;20053;-73
2022/11/21 08:35:41;;;;;;;22.70;12.52;;;;;;;4.53;100.00;100354.16;4806771;29;20125;-73
2022/11/21 08:38:07;;;;;;;20.75;12.98;;;;;;;4.57;100.00;100346.28;4828930;29;20149;-73
2022/11/21 08:40:34;;;;;;;20.55;12.68;;;;;;;4.60;100.00;100339.28;4816329;29;20039;-72
2022/11/21 08:43:01;;;;;;;19.02;12.40;;;;;;;4.64;100.00;100330.50;4809373;29;20155;-72
2022/11/21 08:45:28;;;;;;;18.08;11.13;;;;;;;4.68;100.00;100328.75;4830469;29;20033;-72
2022/11/21 08:47:53;;;;;;;16.75;10.63;;;;;;;4.70;100.00;100317.34;4826453;29;20037;-73
2022/11/21 08:50:20;;;;;;;21.25;10.95;;;;;;;4.75;100.00;100322.59;4826837;29;20506;-72
2022/11/21 08:52:45;;;;;;;18.13;9.80;;;;;;;4.78;100.00;100326.94;4833743;29;20046;-73
2022/11/21 08:55:11;;;;;;;21.55;10.75;;;;;;;4.79;100.00;100326.03;4824774;29;20045;-73
2022/11/21 08:57:37;;;;;;;22.33;9.65;;;;;;;4.82;100.00;100318.16;4800261;29;20806;-73
2022/11/21 09:00:04;;;;;;;18.48;9.30;;;;;;;4.84;100.00;100325.13;4835480;29;20110;-73
2022/11/21 09:02:29;;;;;;;21.20;9.40;;;;;;;4.87;100.00;100318.97;4818982;29;20044;-73
2022/11/21 09:04:55;;;;;;;12.25;7.70;;;;;;;4.89;100.00;100320.72;4822836;29;20038;-73
2022/11/21 09:07:20;;;;;;;14.80;7.32;;;;;;;4.91;100.00;100305.84;4818127;29;20447;-73
2022/11/21 09:09:46;;;;;;;15.60;7.13;;;;;;;4.95;100.00;100307.56;4839375;29;20046;-73
2022/11/21 09:12:11;;;;;;;15.88;6.95;;;;;;;4.96;100.00;100301.41;4805106;29;20419;-72
2022/11/21 09:20:05;;;;;;;11.85;6.15;;;;;;;5.10;100.00;100297.84;4802859;29;20121;-73
2022/11/21 09:22:31;;;;;;;17.88;6.43;;;;;;;5.14;100.00;100302.16;4829405;29;20501;-73
2022/11/21 09:24:56;;;;;;;13.43;6.82;;;;;;;5.18;100.00;100298.63;4797277;29;20057;-73
2022/11/21 09:27:22;;;;;;;13.77;5.93;;;;;;;5.20;100.00;100293.38;4799272;29;20395;-73
2022/11/21 09:29:48;;;;;;;12.35;6.05;;;;;;;5.26;100.00;100295.94;4829657;29;20479;-73
2022/11/21 09:32:13;;;;;;;14.45;5.55;;;;;;;5.28;100.00;100289.78;4803215;29;20105;-73
2022/11/21 09:34:39;;;;;;;17.77;5.90;;;;;;;5.30;100.00;100293.28;4822834;29;20403;-73
2022/11/21 09:37:04;;;;;;;13.85;5.40;;;;;;;5.34;100.00;100289.75;4807241;29;20042;-73
2022/11/21 09:39:30;;;;;;;14.50;5.60;;;;;;;5.38;100.00;100290.56;4792117;29;22273;-73
2022/11/21 09:41:55;;;;;;;11.07;4.70;;;;;;;5.44;100.00;100284.38;4804851;29;20057;-73
2022/11/21 09:44:39;;;;;;;13.82;5.10;;;;;;;5.46;100.00;100277.38;4811925;29;20033;-73
2022/11/21 09:47:15;;;;;;;13.02;5.22;;;;;;;5.51;100.00;100263.28;4829123;29;20042;-73
2022/11/21 09:49:45;;;;;;;13.63;4.88;;;;;;;5.54;100.00;100265.06;4823056;29;20145;-73
2022/11/21 09:52:14;;;;;;;14.80;5.43;;;;;;;5.63;100.00;100264.06;4821917;29;20050;-73
2022/11/21 09:54:52;;;;;;;14.20;5.50;;;;;;;5.69;100.00;100264.00;4805699;29;20031;-73
2022/11/21 09:57:21;;;;;;;11.32;5.07;;;;;;;5.74;100.00;100263.06;4807205;29;20460;-73
2022/11/21 09:59:48;;;;;;;12.70;5.00;;;;;;;5.80;100.00;100260.34;4822694;29;20046;-73
2022/11/21 10:02:16;;;;;;;16.80;4.90;;;;;;;5.85;100.00;100247.16;4801402;29;20114;-73
2022/11/21 10:04:43;;;;;;;10.00;4.82;;;;;;;5.94;100.00;100256.75;4806570;29;20026;-73
2022/11/21 10:07:20;;;;;;;10.88;4.90;;;;;;;6.00;100.00;100248.78;4804764;29;20046;-73
2022/11/21 10:10:16;;;;;;;11.00;4.53;;;;;;;6.07;100.00;100249.56;4812083;29;20039;-73
2022/11/21 10:12:41;;;;;;;9.93;4.47;;;;;;;6.09;100.00;100239.91;4823881;29;20129;-73
2022/11/21 10:15:13;;;;;;;11.02;4.40;;;;;;;6.11;100.00;100235.47;4823583;29;20118;-73
2022/11/21 10:17:41;;;;;;;;;;;;;;;6.20;100.00;100236.22;4821085;29;20487;-73
2022/11/21 10:20:28;;;;;;;13.00;4.38;;;;;;;6.24;100.00;100234.44;4807275;29;20344;-74
2022/11/21 10:23:25;;;;;;;12.57;4.05;;;;;;;6.30;100.00;100229.09;4806363;29;20053;-73
2022/11/21 10:25:56;;;;;;;11.10;4.43;;;;;;;6.42;100.00;100220.16;4812799;29;20062;-73
2022/11/21 10:28:47;;;;;;;8.02;4.05;;;;;;;6.51;100.00;100209.50;4819119;29;20085;-73
2022/11/21 10:31:14;;;;;;;;;;;;;;;6.46;100.00;100211.34;4815686;29;20073;-74
2022/11/21 10:33:40;;;;;;;17.58;4.50;;;;;;;6.40;100.00;100211.41;4807104;29;19913;-74
2022/11/21 10:36:30;;;;;;;9.35;4.13;;;;;;;6.35;100.00;100210.63;4802425;29;20212;-74
2022/11/21 10:39:21;;;;;;;10.60;3.85;;;;;;;6.29;100.00;100216.84;4805555;29;20034;-74
2022/11/21 10:42:24;;;;;;;10.20;3.87;;;;;;;6.31;100.00;100206.31;4818502;29;20042;-74
2022/11/21 10:47:36;;;;;;;13.65;4.13;;;;;;;6.41;100.00;100193.00;4814092;29;20062;-74
2022/11/21 10:50:08;;;;;;;11.88;4.22;;;;;;;6.40;100.00;100190.38;4803921;29;20058;-74
2022/11/21 10:56:11;;;;;;;9.45;3.88;;;;;;;6.41;100.00;100190.34;4772787;29;20049;-75
2022/11/21 10:58:40;;;;;;;8.85;3.90;;;;;;;6.49;100.00;100186.75;4806212;29;20018;-74
2022/11/21 11:01:37;;;;;;;13.38;4.35;;;;;;;6.54;100.00;100187.53;4822806;29;20034;-75
2022/11/21 11:04:08;;;;;;;13.25;4.60;;;;;;;6.62;100.00;100175.97;4806153;29;20073;-74
2022/11/21 11:06:38;;;;;;;9.32;4.20;;;;;;;6.75;100.00;100167.88;4806989;29;20145;-74
2022/11/21 11:09:04;;;;;;;12.00;4.18;;;;;;;6.81;100.00;100166.03;4823324;29;20435;-74
2022/11/21 11:11:29;;;;;;;19.08;4.50;;;;;;;6.98;100.00;100159.63;4823070;29;20072;-74
2022/11/21 11:14:01;;;;;;;9.38;3.97;;;;;;;7.10;100.00;100154.13;4823086;29;20096;-75
2022/11/21 11:16:28;;;;;;;12.73;3.92;;;;;;;7.18;100.00;100148.72;4806314;29;20042;-75
2022/11/21 11:19:07;;;;;;;11.55;3.60;;;;;;;7.25;100.00;100155.59;4819795;29;20030;-75
2022/11/21 11:21:39;;;;;;;10.50;3.30;;;;;;;7.37;100.00;100144.81;4825027;29;20038;-75
2022/11/21 11:24:21;;;;;;;11.13;3.35;;;;;;;7.44;99.50;100135.00;4826936;29;20081;-75
2022/11/21 11:26:46;;;;;;;;;;;;;;;7.50;100.00;100134.91;4826133;29;20053;-75
2022/11/21 11:29:23;;;;;;;7.93;3.08;;;;;;;7.56;99.62;100132.13;4814009;29;20365;-75
2022/11/21 11:31:58;;;;;;;12.55;4.28;;;;;;;7.71;99.89;100133.56;4831135;29;20087;-75